sensor_id;sensor_type;location;lat;lon;timestamp;temperature;humidity
17452;DHT22;8843;48.838;9.324;2023-06-26T00:01:04;24.50;55.30
17452;DHT22;8843;48.838;9.324;2023-06-26T00:03:31;24.50;55.30
17452;DHT22;8843;48.838;9.324;2023-06-26T00:05:58;24.50;55.30
17452;DHT22;8843;48.838;9.324;2023-06-26T00:08:28;24.50;55.40
17452;DHT22;8843;48.838;9.324;2023-06-26T00:10:55;24.50;55.30
17452;DHT22;8843;48.838;9.324;2023-06-26T00:13:23;24.40;55.20
17452;DHT22;8843;48.838;9.324;2023-06-26T00:15:50;24.40;55.30
17452;DHT22;8843;48.838;9.324;2023-06-26T00:18:17;24.40;55.40
17452;DHT22;8843;48.838;9.324;2023-06-26T00:20:44;24.40;55.40
17452;DHT22;8843;48.838;9.324;2023-06-26T00:23:11;24.40;55.60
17452;DHT22;8843;48.838;9.324;2023-06-26T00:25:40;24.40;55.50
17452;DHT22;8843;48.838;9.324;2023-06-26T00:28:06;24.40;55.60
17452;DHT22;8843;48.838;9.324;2023-06-26T00:30:33;24.40;55.60
17452;DHT22;8843;48.838;9.324;2023-06-26T00:33:01;24.40;55.60
17452;DHT22;8843;48.838;9.324;2023-06-26T00:35:27;24.40;55.80
17452;DHT22;8843;48.838;9.324;2023-06-26T00:37:54;24.40;55.80
17452;DHT22;8843;48.838;9.324;2023-06-26T00:40:21;24.40;55.60
17452;DHT22;8843;48.838;9.324;2023-06-26T00:42:49;24.40;55.70
17452;DHT22;8843;48.838;9.324;2023-06-26T00:45:16;24.30;55.70
17452;DHT22;8843;48.838;9.324;2023-06-26T00:47:43;24.40;55.90
17452;DHT22;8843;48.838;9.324;2023-06-26T00:50:10;24.30;55.80
17452;DHT22;8843;48.838;9.324;2023-06-26T00:52:38;24.30;55.80
17452;DHT22;8843;48.838;9.324;2023-06-26T00:55:06;24.30;56.00
17452;DHT22;8843;48.838;9.324;2023-06-26T00:57:33;24.30;55.80
17452;DHT22;8843;48.838;9.324;2023-06-26T01:00:02;24.30;56.00
17452;DHT22;8843;48.838;9.324;2023-06-26T01:02:30;24.30;56.00
17452;DHT22;8843;48.838;9.324;2023-06-26T01:04:59;24.30;56.10
17452;DHT22;8843;48.838;9.324;2023-06-26T01:07:29;24.30;56.10
17452;DHT22;8843;48.838;9.324;2023-06-26T01:09:58;24.30;56.10
17452;DHT22;8843;48.838;9.324;2023-06-26T01:12:25;24.30;56.80
17452;DHT22;8843;48.838;9.324;2023-06-26T01:14:52;24.30;56.00
17452;DHT22;8843;48.838;9.324;2023-06-26T01:17:20;24.30;56.10
17452;DHT22;8843;48.838;9.324;2023-06-26T01:19:49;24.20;56.80
17452;DHT22;8843;48.838;9.324;2023-06-26T01:22:20;24.20;56.00
17452;DHT22;8843;48.838;9.324;2023-06-26T01:25:11;24.20;56.20
17452;DHT22;8843;48.838;9.324;2023-06-26T01:27:45;24.20;56.20
17452;DHT22;8843;48.838;9.324;2023-06-26T01:30:14;24.20;56.20
17452;DHT22;8843;48.838;9.324;2023-06-26T01:32:43;24.20;56.20
17452;DHT22;8843;48.838;9.324;2023-06-26T01:35:11;24.20;56.30
17452;DHT22;8843;48.838;9.324;2023-06-26T01:37:38;24.20;56.30
17452;DHT22;8843;48.838;9.324;2023-06-26T01:40:06;24.20;56.20
17452;DHT22;8843;48.838;9.324;2023-06-26T01:42:34;24.20;56.20
17452;DHT22;8843;48.838;9.324;2023-06-26T01:45:07;24.20;56.20
17452;DHT22;8843;48.838;9.324;2023-06-26T01:47:38;24.20;56.20
17452;DHT22;8843;48.838;9.324;2023-06-26T01:50:11;24.20;56.10
17452;DHT22;8843;48.838;9.324;2023-06-26T01:52:41;24.10;56.10
17452;DHT22;8843;48.838;9.324;2023-06-26T01:55:15;24.10;56.10
17452;DHT22;8843;48.838;9.324;2023-06-26T01:57:44;24.10;56.10
17452;DHT22;8843;48.838;9.324;2023-06-26T02:00:14;24.10;56.20
17452;DHT22;8843;48.838;9.324;2023-06-26T02:02:43;24.10;56.20
17452;DHT22;8843;48.838;9.324;2023-06-26T02:05:11;24.10;56.30
17452;DHT22;8843;48.838;9.324;2023-06-26T02:07:38;24.10;56.30
17452;DHT22;8843;48.838;9.324;2023-06-26T02:10:06;24.10;56.10
17452;DHT22;8843;48.838;9.324;2023-06-26T02:12:34;24.10;56.00
17452;DHT22;8843;48.838;9.324;2023-06-26T02:15:02;24.10;56.30
17452;DHT22;8843;48.838;9.324;2023-06-26T02:17:31;24.10;56.30
17452;DHT22;8843;48.838;9.324;2023-06-26T02:19:57;24.10;56.30
17452;DHT22;8843;48.838;9.324;2023-06-26T02:22:24;24.10;56.20
17452;DHT22;8843;48.838;9.324;2023-06-26T02:24:51;24.10;56.20
17452;DHT22;8843;48.838;9.324;2023-06-26T02:27:18;24.10;56.30
17452;DHT22;8843;48.838;9.324;2023-06-26T02:29:45;24.10;56.20
17452;DHT22;8843;48.838;9.324;2023-06-26T02:32:12;24.10;56.30
17452;DHT22;8843;48.838;9.324;2023-06-26T02:34:40;24.10;56.20
17452;DHT22;8843;48.838;9.324;2023-06-26T02:37:07;24.10;56.20
17452;DHT22;8843;48.838;9.324;2023-06-26T02:39:34;24.00;56.20
17452;DHT22;8843;48.838;9.324;2023-06-26T02:42:01;24.00;56.20
17452;DHT22;8843;48.838;9.324;2023-06-26T02:44:28;24.00;56.30
17452;DHT22;8843;48.838;9.324;2023-06-26T02:46:54;24.00;56.10
17452;DHT22;8843;48.838;9.324;2023-06-26T02:49:21;24.00;56.30
17452;DHT22;8843;48.838;9.324;2023-06-26T02:51:50;24.00;56.30
17452;DHT22;8843;48.838;9.324;2023-06-26T02:54:17;24.00;56.30
17452;DHT22;8843;48.838;9.324;2023-06-26T02:56:43;24.00;56.30
17452;DHT22;8843;48.838;9.324;2023-06-26T02:59:10;24.00;56.30
17452;DHT22;8843;48.838;9.324;2023-06-26T03:01:37;24.00;56.30
17452;DHT22;8843;48.838;9.324;2023-06-26T03:04:04;24.00;56.20
17452;DHT22;8843;48.838;9.324;2023-06-26T03:06:31;24.00;56.30
17452;DHT22;8843;48.838;9.324;2023-06-26T03:08:59;24.00;56.40
17452;DHT22;8843;48.838;9.324;2023-06-26T03:11:26;24.00;56.40
17452;DHT22;8843;48.838;9.324;2023-06-26T03:13:53;24.00;56.50
17452;DHT22;8843;48.838;9.324;2023-06-26T03:16:20;23.90;56.40
17452;DHT22;8843;48.838;9.324;2023-06-26T03:18:47;23.90;56.40
17452;DHT22;8843;48.838;9.324;2023-06-26T03:21:14;23.90;56.30
17452;DHT22;8843;48.838;9.324;2023-06-26T03:23:40;23.90;56.40
17452;DHT22;8843;48.838;9.324;2023-06-26T03:26:09;23.90;56.40
17452;DHT22;8843;48.838;9.324;2023-06-26T03:28:35;23.90;56.40
17452;DHT22;8843;48.838;9.324;2023-06-26T03:31:02;23.90;56.40
17452;DHT22;8843;48.838;9.324;2023-06-26T03:33:29;23.90;56.40
17452;DHT22;8843;48.838;9.324;2023-06-26T03:35:56;23.90;56.50
17452;DHT22;8843;48.838;9.324;2023-06-26T03:38:24;23.90;56.60
17452;DHT22;8843;48.838;9.324;2023-06-26T03:40:52;23.90;56.50
17452;DHT22;8843;48.838;9.324;2023-06-26T03:43:20;23.90;56.50
17452;DHT22;8843;48.838;9.324;2023-06-26T03:45:47;23.80;56.30
17452;DHT22;8843;48.838;9.324;2023-06-26T03:48:14;23.80;56.40
17452;DHT22;8843;48.838;9.324;2023-06-26T03:50:41;23.80;56.40
17452;DHT22;8843;48.838;9.324;2023-06-26T03:53:08;23.80;56.40
17452;DHT22;8843;48.838;9.324;2023-06-26T03:55:35;23.80;56.40
17452;DHT22;8843;48.838;9.324;2023-06-26T03:58:01;23.80;56.50
17452;DHT22;8843;48.838;9.324;2023-06-26T04:00:30;23.80;56.40
17452;DHT22;8843;48.838;9.324;2023-06-26T04:02:57;23.80;56.60
17452;DHT22;8843;48.838;9.324;2023-06-26T04:05:24;23.80;56.50
17452;DHT22;8843;48.838;9.324;2023-06-26T04:07:51;23.80;56.50
17452;DHT22;8843;48.838;9.324;2023-06-26T04:10:18;23.80;57.20
17452;DHT22;8843;48.838;9.324;2023-06-26T04:12:46;23.80;56.50
17452;DHT22;8843;48.838;9.324;2023-06-26T04:15:13;23.80;56.60
17452;DHT22;8843;48.838;9.324;2023-06-26T04:17:41;23.80;56.60
17452;DHT22;8843;48.838;9.324;2023-06-26T04:20:09;23.80;56.60
17452;DHT22;8843;48.838;9.324;2023-06-26T04:22:36;23.80;56.60
17452;DHT22;8843;48.838;9.324;2023-06-26T04:25:03;23.70;56.60
17452;DHT22;8843;48.838;9.324;2023-06-26T04:27:30;23.80;56.70
17452;DHT22;8843;48.838;9.324;2023-06-26T04:29:57;23.80;56.60
17452;DHT22;8843;48.838;9.324;2023-06-26T04:32:24;23.70;56.60
17452;DHT22;8843;48.838;9.324;2023-06-26T04:34:52;23.70;56.70
17452;DHT22;8843;48.838;9.324;2023-06-26T04:37:19;23.70;56.70
17452;DHT22;8843;48.838;9.324;2023-06-26T04:39:46;23.70;57.30
17452;DHT22;8843;48.838;9.324;2023-06-26T04:42:13;23.70;56.70
17452;DHT22;8843;48.838;9.324;2023-06-26T04:44:40;23.70;57.40
17452;DHT22;8843;48.838;9.324;2023-06-26T04:47:07;23.70;56.80
17452;DHT22;8843;48.838;9.324;2023-06-26T04:49:34;23.70;56.90
17452;DHT22;8843;48.838;9.324;2023-06-26T04:52:03;23.70;56.90
17452;DHT22;8843;48.838;9.324;2023-06-26T04:54:30;23.70;57.00
17452;DHT22;8843;48.838;9.324;2023-06-26T04:56:57;23.70;56.90
17452;DHT22;8843;48.838;9.324;2023-06-26T04:59:25;23.70;57.00
17452;DHT22;8843;48.838;9.324;2023-06-26T05:01:52;23.70;57.10
17452;DHT22;8843;48.838;9.324;2023-06-26T05:04:19;23.70;57.10
17452;DHT22;8843;48.838;9.324;2023-06-26T05:06:46;23.70;57.00
17452;DHT22;8843;48.838;9.324;2023-06-26T05:09:14;23.60;57.00
17452;DHT22;8843;48.838;9.324;2023-06-26T05:11:41;23.70;57.10
17452;DHT22;8843;48.838;9.324;2023-06-26T05:14:08;23.70;57.10
17452;DHT22;8843;48.838;9.324;2023-06-26T05:16:35;23.70;57.20
17452;DHT22;8843;48.838;9.324;2023-06-26T05:19:02;23.70;57.30
17452;DHT22;8843;48.838;9.324;2023-06-26T05:21:31;23.60;57.20
17452;DHT22;8843;48.838;9.324;2023-06-26T05:23:58;23.60;57.30
17452;DHT22;8843;48.838;9.324;2023-06-26T05:26:27;23.60;57.40
17452;DHT22;8843;48.838;9.324;2023-06-26T05:28:55;23.60;57.40
17452;DHT22;8843;48.838;9.324;2023-06-26T05:31:22;23.60;57.50
17452;DHT22;8843;48.838;9.324;2023-06-26T05:33:49;23.60;57.60
17452;DHT22;8843;48.838;9.324;2023-06-26T05:36:19;23.60;57.70
17452;DHT22;8843;48.838;9.324;2023-06-26T05:38:46;23.60;57.80
17452;DHT22;8843;48.838;9.324;2023-06-26T05:41:18;23.60;57.80
17452;DHT22;8843;48.838;9.324;2023-06-26T05:43:47;23.60;57.80
17452;DHT22;8843;48.838;9.324;2023-06-26T05:46:15;23.20;55.50
17452;DHT22;8843;48.838;9.324;2023-06-26T05:48:42;22.90;56.10
17452;DHT22;8843;48.838;9.324;2023-06-26T05:51:09;22.80;56.40
17452;DHT22;8843;48.838;9.324;2023-06-26T05:53:37;22.80;56.70
17452;DHT22;8843;48.838;9.324;2023-06-26T05:56:04;22.70;56.80
17452;DHT22;8843;48.838;9.324;2023-06-26T05:58:31;22.70;57.10
17452;DHT22;8843;48.838;9.324;2023-06-26T06:01:00;22.70;57.20
17452;DHT22;8843;48.838;9.324;2023-06-26T06:03:27;22.70;57.30
17452;DHT22;8843;48.838;9.324;2023-06-26T06:05:54;22.80;57.40
17452;DHT22;8843;48.838;9.324;2023-06-26T06:08:21;22.80;57.70
17452;DHT22;8843;48.838;9.324;2023-06-26T06:10:48;23.00;58.90
17452;DHT22;8843;48.838;9.324;2023-06-26T06:13:15;23.20;59.10
17452;DHT22;8843;48.838;9.324;2023-06-26T06:15:42;23.30;58.90
17452;DHT22;8843;48.838;9.324;2023-06-26T06:18:10;23.40;58.90
17452;DHT22;8843;48.838;9.324;2023-06-26T06:20:37;23.40;58.60
17452;DHT22;8843;48.838;9.324;2023-06-26T06:23:04;23.50;58.60
17452;DHT22;8843;48.838;9.324;2023-06-26T06:25:31;23.60;58.50
17452;DHT22;8843;48.838;9.324;2023-06-26T06:27:58;23.60;58.40
17452;DHT22;8843;48.838;9.324;2023-06-26T06:30:25;23.60;59.00
17452;DHT22;8843;48.838;9.324;2023-06-26T06:32:53;23.60;58.20
17452;DHT22;8843;48.838;9.324;2023-06-26T06:35:22;23.60;58.00
17452;DHT22;8843;48.838;9.324;2023-06-26T06:37:49;23.60;58.20
17452;DHT22;8843;48.838;9.324;2023-06-26T06:40:16;23.60;58.30
17452;DHT22;8843;48.838;9.324;2023-06-26T06:42:43;23.60;58.30
17452;DHT22;8843;48.838;9.324;2023-06-26T06:45:10;23.60;58.20
17452;DHT22;8843;48.838;9.324;2023-06-26T06:47:37;23.60;58.10
17452;DHT22;8843;48.838;9.324;2023-06-26T06:50:04;23.60;58.10
17452;DHT22;8843;48.838;9.324;2023-06-26T06:52:36;23.60;58.20
17452;DHT22;8843;48.838;9.324;2023-06-26T06:55:04;23.60;58.00
17452;DHT22;8843;48.838;9.324;2023-06-26T06:57:34;23.60;58.40
17452;DHT22;8843;48.838;9.324;2023-06-26T07:00:04;23.60;58.30
17452;DHT22;8843;48.838;9.324;2023-06-26T07:02:34;23.60;58.30
17452;DHT22;8843;48.838;9.324;2023-06-26T07:05:01;23.60;57.80
17452;DHT22;8843;48.838;9.324;2023-06-26T07:07:32;23.60;57.70
17452;DHT22;8843;48.838;9.324;2023-06-26T07:10:02;23.70;57.70
17452;DHT22;8843;48.838;9.324;2023-06-26T07:12:29;23.70;57.40
17452;DHT22;8843;48.838;9.324;2023-06-26T07:14:57;23.70;58.20
17452;DHT22;8843;48.838;9.324;2023-06-26T07:17:24;23.70;58.10
17452;DHT22;8843;48.838;9.324;2023-06-26T07:19:51;23.70;57.70
17452;DHT22;8843;48.838;9.324;2023-06-26T07:22:17;23.70;57.70
17452;DHT22;8843;48.838;9.324;2023-06-26T07:24:46;23.70;57.70
17452;DHT22;8843;48.838;9.324;2023-06-26T07:27:14;23.70;57.40
17452;DHT22;8843;48.838;9.324;2023-06-26T07:29:41;23.70;58.50
17452;DHT22;8843;48.838;9.324;2023-06-26T07:32:08;23.70;57.60
17452;DHT22;8843;48.838;9.324;2023-06-26T07:34:35;23.80;58.10
17452;DHT22;8843;48.838;9.324;2023-06-26T07:37:02;23.80;58.10
17452;DHT22;8843;48.838;9.324;2023-06-26T07:39:29;23.80;58.50
17452;DHT22;8843;48.838;9.324;2023-06-26T07:41:56;23.80;58.60
17452;DHT22;8843;48.838;9.324;2023-06-26T07:44:26;23.80;58.50
17452;DHT22;8843;48.838;9.324;2023-06-26T07:46:53;23.80;58.60
17452;DHT22;8843;48.838;9.324;2023-06-26T07:49:20;23.90;59.10
17452;DHT22;8843;48.838;9.324;2023-06-26T07:51:46;24.00;59.40
17452;DHT22;8843;48.838;9.324;2023-06-26T07:54:13;24.00;59.30
17452;DHT22;8843;48.838;9.324;2023-06-26T07:56:53;24.10;59.60
17452;DHT22;8843;48.838;9.324;2023-06-26T07:59:21;24.20;60.10
17452;DHT22;8843;48.838;9.324;2023-06-26T08:01:50;24.30;60.90
17452;DHT22;8843;48.838;9.324;2023-06-26T08:04:18;24.40;60.70
17452;DHT22;8843;48.838;9.324;2023-06-26T08:06:47;24.50;59.70
17452;DHT22;8843;48.838;9.324;2023-06-26T08:09:14;24.70;59.50
17452;DHT22;8843;48.838;9.324;2023-06-26T08:11:41;24.80;59.20
17452;DHT22;8843;48.838;9.324;2023-06-26T08:14:08;24.90;59.60
17452;DHT22;8843;48.838;9.324;2023-06-26T08:16:35;25.00;59.30
17452;DHT22;8843;48.838;9.324;2023-06-26T08:19:03;25.10;59.00
17452;DHT22;8843;48.838;9.324;2023-06-26T08:21:30;25.30;60.30
17452;DHT22;8843;48.838;9.324;2023-06-26T08:23:57;25.50;59.70
17452;DHT22;8843;48.838;9.324;2023-06-26T08:26:24;25.50;59.30
17452;DHT22;8843;48.838;9.324;2023-06-26T08:28:51;25.70;59.00
17452;DHT22;8843;48.838;9.324;2023-06-26T08:31:18;25.70;58.10
17452;DHT22;8843;48.838;9.324;2023-06-26T08:33:44;25.70;57.20
17452;DHT22;8843;48.838;9.324;2023-06-26T08:36:13;25.90;58.70
17452;DHT22;8843;48.838;9.324;2023-06-26T08:38:40;25.60;57.50
17452;DHT22;8843;48.838;9.324;2023-06-26T08:41:07;25.90;57.30
17452;DHT22;8843;48.838;9.324;2023-06-26T08:43:34;26.00;57.50
17452;DHT22;8843;48.838;9.324;2023-06-26T08:46:02;25.80;56.50
17452;DHT22;8843;48.838;9.324;2023-06-26T08:48:31;25.80;57.80
17452;DHT22;8843;48.838;9.324;2023-06-26T08:51:01;26.00;57.00
17452;DHT22;8843;48.838;9.324;2023-06-26T08:53:35;26.40;57.50
17452;DHT22;8843;48.838;9.324;2023-06-26T08:56:05;26.20;56.00
17452;DHT22;8843;48.838;9.324;2023-06-26T08:58:33;26.50;56.80
17452;DHT22;8843;48.838;9.324;2023-06-26T09:01:02;26.60;56.70
17452;DHT22;8843;48.838;9.324;2023-06-26T09:03:31;26.80;56.40
17452;DHT22;8843;48.838;9.324;2023-06-26T09:05:58;26.60;56.30
17452;DHT22;8843;48.838;9.324;2023-06-26T09:08:25;26.60;55.00
17452;DHT22;8843;48.838;9.324;2023-06-26T09:10:54;26.40;55.30
17452;DHT22;8843;48.838;9.324;2023-06-26T09:13:21;26.40;55.10
17452;DHT22;8843;48.838;9.324;2023-06-26T09:15:48;26.80;55.30
17452;DHT22;8843;48.838;9.324;2023-06-26T09:18:17;26.90;55.20
17452;DHT22;8843;48.838;9.324;2023-06-26T09:20:45;26.90;54.80
17452;DHT22;8843;48.838;9.324;2023-06-26T09:23:12;26.70;54.60
17452;DHT22;8843;48.838;9.324;2023-06-26T09:25:40;26.90;54.90
17452;DHT22;8843;48.838;9.324;2023-06-26T09:28:08;27.10;54.50
17452;DHT22;8843;48.838;9.324;2023-06-26T09:30:37;27.20;54.40
17452;DHT22;8843;48.838;9.324;2023-06-26T09:33:14;27.40;54.60
17452;DHT22;8843;48.838;9.324;2023-06-26T09:35:41;27.80;54.20
17452;DHT22;8843;48.838;9.324;2023-06-26T09:38:08;27.80;53.90
17452;DHT22;8843;48.838;9.324;2023-06-26T09:40:35;28.00;54.00
17452;DHT22;8843;48.838;9.324;2023-06-26T09:43:05;27.60;54.10
17452;DHT22;8843;48.838;9.324;2023-06-26T09:45:34;28.00;54.30
17452;DHT22;8843;48.838;9.324;2023-06-26T09:48:02;28.00;53.20
17452;DHT22;8843;48.838;9.324;2023-06-26T09:50:30;28.10;53.50
17452;DHT22;8843;48.838;9.324;2023-06-26T09:53:07;28.40;53.10
17452;DHT22;8843;48.838;9.324;2023-06-26T09:55:34;28.40;52.70
17452;DHT22;8843;48.838;9.324;2023-06-26T09:58:03;28.50;52.50
17452;DHT22;8843;48.838;9.324;2023-06-26T10:00:30;28.40;52.40
17452;DHT22;8843;48.838;9.324;2023-06-26T10:02:59;28.40;52.20
17452;DHT22;8843;48.838;9.324;2023-06-26T10:05:26;28.50;52.40
17452;DHT22;8843;48.838;9.324;2023-06-26T10:07:54;28.20;51.80
17452;DHT22;8843;48.838;9.324;2023-06-26T10:10:23;28.20;52.90
17452;DHT22;8843;48.838;9.324;2023-06-26T10:12:54;28.00;52.50
17452;DHT22;8843;48.838;9.324;2023-06-26T10:15:25;28.20;53.00
17452;DHT22;8843;48.838;9.324;2023-06-26T10:17:55;28.20;53.00
17452;DHT22;8843;48.838;9.324;2023-06-26T10:20:25;28.40;52.40
17452;DHT22;8843;48.838;9.324;2023-06-26T10:22:54;28.60;52.60
17452;DHT22;8843;48.838;9.324;2023-06-26T10:25:24;28.50;52.70
17452;DHT22;8843;48.838;9.324;2023-06-26T10:27:54;28.70;52.10
17452;DHT22;8843;48.838;9.324;2023-06-26T10:30:24;28.60;52.30
17452;DHT22;8843;48.838;9.324;2023-06-26T10:32:54;28.80;53.00
17452;DHT22;8843;48.838;9.324;2023-06-26T10:35:21;29.00;52.50
17452;DHT22;8843;48.838;9.324;2023-06-26T10:37:50;29.10;52.50
17452;DHT22;8843;48.838;9.324;2023-06-26T10:40:24;29.10;52.20
17452;DHT22;8843;48.838;9.324;2023-06-26T10:42:51;28.80;52.60
17452;DHT22;8843;48.838;9.324;2023-06-26T10:45:33;28.70;52.80
17452;DHT22;8843;48.838;9.324;2023-06-26T10:48:00;28.80;52.60
17452;DHT22;8843;48.838;9.324;2023-06-26T10:50:29;28.60;52.80
17452;DHT22;8843;48.838;9.324;2023-06-26T10:53:12;28.00;52.30
17452;DHT22;8843;48.838;9.324;2023-06-26T10:55:47;28.20;52.80
17452;DHT22;8843;48.838;9.324;2023-06-26T10:58:31;27.90;53.20
17452;DHT22;8843;48.838;9.324;2023-06-26T11:01:21;28.00;52.90
17452;DHT22;8843;48.838;9.324;2023-06-26T11:03:59;28.40;54.00
17452;DHT22;8843;48.838;9.324;2023-06-26T11:06:28;28.20;52.40
17452;DHT22;8843;48.838;9.324;2023-06-26T11:09:00;28.10;54.00
17452;DHT22;8843;48.838;9.324;2023-06-26T11:11:55;28.40;53.30
17452;DHT22;8843;48.838;9.324;2023-06-26T11:14:25;28.60;52.90
17452;DHT22;8843;48.838;9.324;2023-06-26T11:16:53;28.50;52.20
17452;DHT22;8843;48.838;9.324;2023-06-26T11:19:21;28.80;53.50
17452;DHT22;8843;48.838;9.324;2023-06-26T11:21:48;28.80;51.50
17452;DHT22;8843;48.838;9.324;2023-06-26T11:24:18;28.60;53.00
17452;DHT22;8843;48.838;9.324;2023-06-26T11:26:45;28.90;52.70
17452;DHT22;8843;48.838;9.324;2023-06-26T11:29:12;28.90;53.60
17452;DHT22;8843;48.838;9.324;2023-06-26T11:31:40;28.70;52.10
17452;DHT22;8843;48.838;9.324;2023-06-26T11:34:09;28.60;53.60
17452;DHT22;8843;48.838;9.324;2023-06-26T11:36:37;28.50;53.60
17452;DHT22;8843;48.838;9.324;2023-06-26T11:39:05;28.80;53.50
17452;DHT22;8843;48.838;9.324;2023-06-26T11:41:35;28.70;53.60
17452;DHT22;8843;48.838;9.324;2023-06-26T11:44:03;28.90;54.40
17452;DHT22;8843;48.838;9.324;2023-06-26T11:46:30;28.50;53.40
17452;DHT22;8843;48.838;9.324;2023-06-26T11:48:58;28.70;53.30
17452;DHT22;8843;48.838;9.324;2023-06-26T11:51:27;28.70;54.70
17452;DHT22;8843;48.838;9.324;2023-06-26T11:53:54;28.80;54.00
17452;DHT22;8843;48.838;9.324;2023-06-26T11:56:21;29.10;53.80
17452;DHT22;8843;48.838;9.324;2023-06-26T11:59:00;28.90;52.70
17452;DHT22;8843;48.838;9.324;2023-06-26T12:01:31;29.00;53.70
17452;DHT22;8843;48.838;9.324;2023-06-26T12:03:59;29.20;52.70
17452;DHT22;8843;48.838;9.324;2023-06-26T12:06:29;29.10;53.20
17452;DHT22;8843;48.838;9.324;2023-06-26T12:08:56;29.10;54.00
17452;DHT22;8843;48.838;9.324;2023-06-26T12:11:24;29.00;52.90
17452;DHT22;8843;48.838;9.324;2023-06-26T12:13:52;28.70;54.70
17452;DHT22;8843;48.838;9.324;2023-06-26T12:16:20;28.70;53.70
17452;DHT22;8843;48.838;9.324;2023-06-26T12:18:47;29.00;53.90
17452;DHT22;8843;48.838;9.324;2023-06-26T12:21:45;28.90;53.50
17452;DHT22;8843;48.838;9.324;2023-06-26T12:24:14;29.20;54.30
17452;DHT22;8843;48.838;9.324;2023-06-26T12:26:42;28.90;54.40
17452;DHT22;8843;48.838;9.324;2023-06-26T12:29:11;28.80;53.20
17452;DHT22;8843;48.838;9.324;2023-06-26T12:31:42;28.60;55.10
17452;DHT22;8843;48.838;9.324;2023-06-26T12:34:10;28.30;55.30
17452;DHT22;8843;48.838;9.324;2023-06-26T12:36:41;28.60;55.20
17452;DHT22;8843;48.838;9.324;2023-06-26T12:39:09;28.60;54.80
17452;DHT22;8843;48.838;9.324;2023-06-26T12:41:45;28.60;55.90
17452;DHT22;8843;48.838;9.324;2023-06-26T12:44:19;28.10;55.30
17452;DHT22;8843;48.838;9.324;2023-06-26T12:46:48;28.20;55.90
17452;DHT22;8843;48.838;9.324;2023-06-26T12:49:16;28.50;54.70
17452;DHT22;8843;48.838;9.324;2023-06-26T12:51:43;28.60;55.70
17452;DHT22;8843;48.838;9.324;2023-06-26T12:54:10;28.30;54.70
17452;DHT22;8843;48.838;9.324;2023-06-26T12:56:37;28.30;55.00
17452;DHT22;8843;48.838;9.324;2023-06-26T12:59:04;28.30;55.80
17452;DHT22;8843;48.838;9.324;2023-06-26T13:01:30;28.50;55.30
17452;DHT22;8843;48.838;9.324;2023-06-26T13:03:59;28.20;55.90
17452;DHT22;8843;48.838;9.324;2023-06-26T13:06:26;28.80;56.00
17452;DHT22;8843;48.838;9.324;2023-06-26T13:08:53;28.80;55.80
17452;DHT22;8843;48.838;9.324;2023-06-26T13:11:20;28.90;55.60
17452;DHT22;8843;48.838;9.324;2023-06-26T13:13:48;28.60;54.90
17452;DHT22;8843;48.838;9.324;2023-06-26T13:16:15;29.00;55.70
17452;DHT22;8843;48.838;9.324;2023-06-26T13:18:44;28.70;53.70
17452;DHT22;8843;48.838;9.324;2023-06-26T13:21:12;28.70;54.60
17452;DHT22;8843;48.838;9.324;2023-06-26T13:23:39;28.40;54.40
17452;DHT22;8843;48.838;9.324;2023-06-26T13:26:06;28.50;55.80
17452;DHT22;8843;48.838;9.324;2023-06-26T13:28:33;28.40;55.00
17452;DHT22;8843;48.838;9.324;2023-06-26T13:31:00;28.70;55.30
17452;DHT22;8843;48.838;9.324;2023-06-26T13:33:27;28.20;53.90
17452;DHT22;8843;48.838;9.324;2023-06-26T13:35:54;28.10;54.90
17452;DHT22;8843;48.838;9.324;2023-06-26T13:38:23;28.50;53.90
17452;DHT22;8843;48.838;9.324;2023-06-26T13:40:51;28.60;53.50
17452;DHT22;8843;48.838;9.324;2023-06-26T13:43:20;28.60;54.30
17452;DHT22;8843;48.838;9.324;2023-06-26T13:45:47;28.20;54.00
17452;DHT22;8843;48.838;9.324;2023-06-26T13:48:14;28.50;53.90
17452;DHT22;8843;48.838;9.324;2023-06-26T13:50:41;28.60;54.10
17452;DHT22;8843;48.838;9.324;2023-06-26T13:53:08;28.70;53.00
17452;DHT22;8843;48.838;9.324;2023-06-26T13:55:36;28.50;52.80
17452;DHT22;8843;48.838;9.324;2023-06-26T13:58:04;28.30;53.00
17452;DHT22;8843;48.838;9.324;2023-06-26T14:00:31;28.50;53.20
17452;DHT22;8843;48.838;9.324;2023-06-26T14:02:59;28.50;52.50
17452;DHT22;8843;48.838;9.324;2023-06-26T14:05:26;28.80;51.00
17452;DHT22;8843;48.838;9.324;2023-06-26T14:07:52;28.60;51.70
17452;DHT22;8843;48.838;9.324;2023-06-26T14:10:20;28.40;51.90
17452;DHT22;8843;48.838;9.324;2023-06-26T14:12:49;28.30;52.30
17452;DHT22;8843;48.838;9.324;2023-06-26T14:15:16;28.40;52.20
17452;DHT22;8843;48.838;9.324;2023-06-26T14:17:43;28.50;52.00
17452;DHT22;8843;48.838;9.324;2023-06-26T14:20:11;28.30;52.10
17452;DHT22;8843;48.838;9.324;2023-06-26T14:22:38;28.40;52.20
17452;DHT22;8843;48.838;9.324;2023-06-26T14:25:06;28.30;52.30
17452;DHT22;8843;48.838;9.324;2023-06-26T14:27:33;28.20;52.10
17452;DHT22;8843;48.838;9.324;2023-06-26T14:30:01;28.30;51.90
17452;DHT22;8843;48.838;9.324;2023-06-26T14:32:29;28.00;52.30
17452;DHT22;8843;48.838;9.324;2023-06-26T14:34:56;28.00;52.20
17452;DHT22;8843;48.838;9.324;2023-06-26T14:37:23;28.00;52.10
17452;DHT22;8843;48.838;9.324;2023-06-26T14:39:50;28.00;52.20
17452;DHT22;8843;48.838;9.324;2023-06-26T14:42:17;28.00;51.70
17452;DHT22;8843;48.838;9.324;2023-06-26T14:44:44;28.00;51.80
17452;DHT22;8843;48.838;9.324;2023-06-26T14:47:13;27.80;52.00
17452;DHT22;8843;48.838;9.324;2023-06-26T14:49:40;27.60;52.60
17452;DHT22;8843;48.838;9.324;2023-06-26T14:52:07;27.50;52.80
17452;DHT22;8843;48.838;9.324;2023-06-26T14:54:34;27.50;52.90
17452;DHT22;8843;48.838;9.324;2023-06-26T14:57:02;27.70;52.10
17452;DHT22;8843;48.838;9.324;2023-06-26T14:59:29;27.90;52.10
17452;DHT22;8843;48.838;9.324;2023-06-26T15:01:56;27.70;52.60
17452;DHT22;8843;48.838;9.324;2023-06-26T15:04:24;27.80;52.10
17452;DHT22;8843;48.838;9.324;2023-06-26T15:06:51;27.70;52.60
17452;DHT22;8843;48.838;9.324;2023-06-26T15:09:18;27.50;52.40
17452;DHT22;8843;48.838;9.324;2023-06-26T15:11:45;27.60;52.70
17452;DHT22;8843;48.838;9.324;2023-06-26T15:14:12;27.50;52.70
17452;DHT22;8843;48.838;9.324;2023-06-26T15:16:39;27.40;52.60
17452;DHT22;8843;48.838;9.324;2023-06-26T15:19:06;27.50;53.30
17452;DHT22;8843;48.838;9.324;2023-06-26T15:21:36;27.30;53.30
17452;DHT22;8843;48.838;9.324;2023-06-26T15:24:03;27.30;52.70
17452;DHT22;8843;48.838;9.324;2023-06-26T15:26:30;27.40;52.60
17452;DHT22;8843;48.838;9.324;2023-06-26T15:28:57;27.40;52.20
17452;DHT22;8843;48.838;9.324;2023-06-26T15:31:24;27.60;51.50
17452;DHT22;8843;48.838;9.324;2023-06-26T15:33:51;27.70;51.50
17452;DHT22;8843;48.838;9.324;2023-06-26T15:36:18;27.40;52.40
17452;DHT22;8843;48.838;9.324;2023-06-26T15:38:46;27.40;52.60
17452;DHT22;8843;48.838;9.324;2023-06-26T15:41:13;27.30;52.60
17452;DHT22;8843;48.838;9.324;2023-06-26T15:43:40;27.10;53.80
17452;DHT22;8843;48.838;9.324;2023-06-26T15:46:08;27.20;52.50
17452;DHT22;8843;48.838;9.324;2023-06-26T15:48:35;27.40;52.10
17452;DHT22;8843;48.838;9.324;2023-06-26T15:51:02;27.30;52.70